Time;durP1;ratioP1;P1;durP2;ratioP2;P2;SDS_P1;SDS_P2;PMS_P1;PMS_P2;Temp;Humidity;BMP_temperature;BMP_pressure;BME280_temperature;BME280_humidity;BME280_pressure;Samples;Min_cycle;Max_cycle;Signal;HPM_P1;HPM_P2
2023/09/29 00:00:04;;;;;;;4.97;2.42;;;18.60;99.90;;;;;;5098406;27;20458;-36
2023/09/29 00:02:32;;;;;;;6.03;2.42;;;18.60;99.90;;;;;;5088072;27;20031;-37
2023/09/29 00:04:58;;;;;;;5.90;2.78;;;18.60;99.90;;;;;;5084824;27;20506;-35
2023/09/29 00:07:23;;;;;;;6.00;2.65;;;18.60;99.90;;;;;;5130122;27;20030;-36
2023/09/29 00:09:49;;;;;;;4.00;2.42;;;18.60;99.90;;;;;;5153676;27;20043;-35
2023/09/29 00:12:15;;;;;;;5.68;2.50;;;18.60;99.90;;;;;;5116543;27;20030;-35
2023/09/29 00:14:43;;;;;;;6.00;2.75;;;18.60;99.90;;;;;;5161915;27;20016;-36
2023/09/29 00:17:21;;;;;;;4.95;2.30;;;18.50;99.90;;;;;;5108266;27;20037;-37
2023/09/29 00:19:47;;;;;;;4.93;2.40;;;18.50;99.90;;;;;;5160820;27;20039;-36
2023/09/29 00:22:18;;;;;;;5.30;2.80;;;18.50;99.90;;;;;;5116548;27;20018;-36
2023/09/29 00:24:44;;;;;;;3.42;2.13;;;18.60;99.90;;;;;;5160345;27;20082;-35
2023/09/29 00:27:09;;;;;;;3.60;2.30;;;18.50;99.90;;;;;;5108236;27;20399;-36
2023/09/29 00:29:50;;;;;;;5.07;2.25;;;18.50;99.90;;;;;;5168273;27;20101;-36
2023/09/29 00:32:16;;;;;;;5.90;2.35;;;18.50;99.90;;;;;;5104700;27;20577;-33
2023/09/29 00:34:45;;;;;;;6.13;2.85;;;18.50;99.90;;;;;;5168782;27;20100;-36
2023/09/29 00:37:12;;;;;;;5.90;2.78;;;18.50;99.90;;;;;;5100254;27;20028;-34
2023/09/29 00:39:41;;;;;;;5.75;2.72;;;18.50;99.90;;;;;;5168001;27;20100;-35
2023/09/29 00:42:09;;;;;;;5.95;2.35;;;18.60;99.90;;;;;;5100538;27;20031;-35
2023/09/29 00:44:35;;;;;;;5.15;2.40;;;18.60;99.90;;;;;;5167088;27;20022;-35
2023/09/29 00:47:04;;;;;;;5.07;2.50;;;18.60;99.90;;;;;;5109707;27;20727;-35
2023/09/29 00:49:33;;;;;;;6.35;2.70;;;18.60;99.90;;;;;;5161206;27;20103;-36
2023/09/29 00:52:01;;;;;;;4.70;2.40;;;18.60;99.90;;;;;;5159721;27;20026;-35
2023/09/29 00:54:32;;;;;;;4.60;2.38;;;18.60;99.90;;;;;;5078335;27;20021;-36
2023/09/29 00:57:05;;;;;;;5.50;2.38;;;18.60;99.90;;;;;;5101931;27;20562;-35
2023/09/29 00:59:31;;;;;;;5.07;2.50;;;18.60;99.90;;;;;;5082668;27;20040;-35
2023/09/29 01:01:58;;;;;;;5.88;2.70;;;18.50;99.90;;;;;;5088358;27;20028;-36
2023/09/29 01:04:26;;;;;;;4.38;2.40;;;18.50;99.90;;;;;;5133356;27;20107;-35
2023/09/29 01:06:52;;;;;;;4.93;2.90;;;18.50;99.90;;;;;;5146505;27;20015;-34
2023/09/29 01:09:18;;;;;;;6.40;2.67;;;18.50;99.90;;;;;;5121966;27;20030;-35
2023/09/29 01:11:44;;;;;;;4.55;2.90;;;18.50;99.90;;;;;;5160258;27;20045;-35
2023/09/29 01:14:13;;;;;;;6.03;2.90;;;18.50;99.90;;;;;;5097209;27;20036;-35
2023/09/29 01:16:40;;;;;;;4.22;2.50;;;18.50;99.90;;;;;;5160136;27;20101;-35
2023/09/29 01:19:12;;;;;;;5.03;2.50;;;18.50;99.90;;;;;;5106831;27;20158;-37
2023/09/29 01:21:45;;;;;;;5.88;2.80;;;18.50;99.90;;;;;;5158227;27;20017;-36
2023/09/29 01:24:11;;;;;;;5.35;2.58;;;18.50;99.90;;;;;;5121281;27;20089;-35
2023/09/29 01:26:37;;;;;;;4.22;2.40;;;18.50;99.90;;;;;;5062112;27;20627;-36
2023/09/29 01:29:03;;;;;;;6.93;2.45;;;18.50;99.90;;;;;;5126737;27;20036;-36
2023/09/29 01:31:29;;;;;;;4.70;2.40;;;18.50;99.90;;;;;;5061053;28;20032;-36
2023/09/29 01:33:57;;;;;;;4.30;2.40;;;18.50;99.90;;;;;;5127489;27;20031;-35
2023/09/29 01:36:26;;;;;;;4.72;2.20;;;18.50;99.90;;;;;;5062897;28;20029;-35
2023/09/29 01:38:51;;;;;;;4.40;2.05;;;18.50;99.90;;;;;;5127714;27;20025;-35
2023/09/29 01:41:18;;;;;;;5.05;2.03;;;18.50;99.90;;;;;;5047185;27;20408;-35
2023/09/29 01:43:43;;;;;;;3.85;2.15;;;18.50;99.90;;;;;;5107802;27;20087;-36
2023/09/29 01:46:11;;;;;;;4.78;2.50;;;18.50;99.90;;;;;;5081603;27;20452;-36
2023/09/29 01:48:36;;;;;;;4.95;2.17;;;18.60;99.90;;;;;;5101126;27;20099;-37
2023/09/29 01:51:02;;;;;;;4.28;2.00;;;18.60;99.90;;;;;;5093192;27;20128;-36
2023/09/29 01:53:30;;;;;;;5.40;2.30;;;18.60;99.90;;;;;;5087588;27;20018;-36
2023/09/29 01:55:56;;;;;;;4.97;2.50;;;18.60;99.90;;;;;;5105770;27;20021;-36
2023/09/29 01:58:27;;;;;;;5.57;2.42;;;18.60;99.90;;;;;;5075357;27;20013;-35
2023/09/29 02:00:53;;;;;;;4.90;2.30;;;18.60;99.90;;;;;;5116004;27;20763;-36
2023/09/29 02:03:23;;;;;;;4.40;2.33;;;18.60;99.90;;;;;;5071360;27;20066;-35
2023/09/29 02:05:49;;;;;;;4.43;2.05;;;18.60;99.90;;;;;;5123410;27;20024;-36
2023/09/29 02:08:21;;;;;;;4.25;1.88;;;18.60;99.90;;;;;;5070052;27;20384;-36
2023/09/29 02:10:49;;;;;;;4.25;2.20;;;18.60;99.90;;;;;;5051689;28;20039;-35
2023/09/29 02:13:15;;;;;;;3.97;1.90;;;18.60;99.90;;;;;;5066293;27;20104;-34
2023/09/29 02:15:41;;;;;;;4.63;2.45;;;18.70;99.90;;;;;;5126382;27;20131;-36
2023/09/29 02:18:09;;;;;;;5.63;2.60;;;18.60;99.90;;;;;;5063659;28;20147;-34
2023/09/29 02:20:36;;;;;;;3.40;2.13;;;18.60;99.90;;;;;;5129967;27;20054;-36
2023/09/29 02:23:02;;;;;;;4.47;2.40;;;18.60;99.90;;;;;;5137753;27;20067;-35
2023/09/29 02:25:29;;;;;;;6.28;2.58;;;18.70;99.90;;;;;;5104962;27;20024;-35
2023/09/29 02:27:56;;;;;;;3.33;1.92;;;18.70;99.90;;;;;;5169778;27;20033;-36
2023/09/29 02:30:29;;;;;;;4.32;2.30;;;18.70;99.90;;;;;;5116034;27;20028;-37
2023/09/29 02:32:55;;;;;;;4.18;2.58;;;18.70;99.90;;;;;;5162042;27;20085;-37
2023/09/29 02:35:21;;;;;;;3.95;2.63;;;18.70;99.90;;;;;;5124584;27;20024;-37
2023/09/29 02:37:47;;;;;;;3.72;2.33;;;18.70;99.90;;;;;;5147853;27;20508;-37
2023/09/29 02:40:15;;;;;;;5.30;2.85;;;18.70;99.90;;;;;;5137852;27;20017;-34
2023/09/29 02:42:41;;;;;;;2.85;2.28;;;18.70;99.90;;;;;;5136550;27;20150;-35
2023/09/29 02:45:08;;;;;;;4.00;2.63;;;18.70;99.90;;;;;;5148367;27;20027;-35
2023/09/29 02:47:39;;;;;;;3.90;2.47;;;18.70;99.90;;;;;;5123195;27;20021;-36
2023/09/29 02:50:09;;;;;;;5.47;2.55;;;18.60;99.90;;;;;;5158726;27;20030;-37
2023/09/29 02:52:35;;;;;;;3.38;2.20;;;18.60;99.90;;;;;;5116164;27;20450;-34
2023/09/29 02:55:12;;;;;;;4.38;2.45;;;18.60;99.90;;;;;;5161592;27;20023;-34
2023/09/29 02:57:40;;;;;;;4.82;2.60;;;18.60;99.90;;;;;;5100190;27;20569;-36
2023/09/29 03:00:10;;;;;;;4.15;2.60;;;18.60;99.90;;;;;;5161725;27;20028;-36
2023/09/29 03:02:35;;;;;;;4.32;2.50;;;18.50;99.90;;;;;;5110196;27;20018;-36
2023/09/29 03:05:01;;;;;;;3.53;2.30;;;18.50;99.90;;;;;;5163633;27;20030;-35
2023/09/29 03:07:27;;;;;;;4.97;2.58;;;18.40;99.90;;;;;;5107714;27;20079;-35
2023/09/29 03:09:56;;;;;;;6.40;2.50;;;18.40;99.90;;;;;;5169298;27;20062;-35
2023/09/29 03:12:21;;;;;;;3.45;2.33;;;18.40;99.90;;;;;;5101341;27;20070;-35
2023/09/29 03:14:47;;;;;;;3.67;2.17;;;18.40;99.90;;;;;;5169616;27;20033;-36
2023/09/29 03:17:12;;;;;;;2.45;2.10;;;18.40;99.90;;;;;;5102853;27;20021;-35
2023/09/29 03:19:38;;;;;;;2.85;2.15;;;18.40;99.90;;;;;;5167770;27;20474;-34
2023/09/29 03:22:04;;;;;;;3.92;2.00;;;18.40;99.90;;;;;;5083620;27;20021;-36
2023/09/29 03:24:29;;;;;;;4.55;2.30;;;18.40;99.90;;;;;;5063258;28;20753;-36
2023/09/29 03:26:55;;;;;;;4.32;2.45;;;18.40;99.90;;;;;;5118437;27;20026;-36
2023/09/29 03:29:20;;;;;;;4.43;2.38;;;18.40;99.90;;;;;;5091448;27;20025;-36
2023/09/29 03:31:47;;;;;;;2.97;1.90;;;18.40;99.90;;;;;;5086454;27;20156;-37
2023/09/29 03:34:14;;;;;;;4.05;2.03;;;18.50;99.90;;;;;;5104523;27;20029;-35
2023/09/29 03:36:40;;;;;;;4.20;2.28;;;18.50;99.90;;;;;;5074960;27;20028;-34
2023/09/29 03:39:06;;;;;;;2.92;2.00;;;18.50;99.90;;;;;;5117532;27;20031;-35
2023/09/29 03:41:33;;;;;;;2.45;2.00;;;18.50;99.90;;;;;;5069958;27;20053;-35
2023/09/29 03:43:59;;;;;;;5.07;2.55;;;18.50;99.90;;;;;;5121941;27;20024;-36
2023/09/29 03:46:24;;;;;;;3.70;2.20;;;18.50;99.90;;;;;;5067457;27;20037;-35
2023/09/29 03:48:50;;;;;;;3.92;2.17;;;18.60;99.90;;;;;;5123788;27;20029;-37
2023/09/29 03:51:26;;;;;;;2.47;1.88;;;18.60;99.90;;;;;;5061771;28;20448;-34
2023/09/29 03:53:57;;;;;;;3.22;2.00;;;18.50;99.90;;;;;;5127161;27;20024;-36
2023/09/29 03:56:25;;;;;;;3.00;2.20;;;18.60;99.90;;;;;;5062463;28;20032;-35
2023/09/29 03:58:55;;;;;;;3.65;1.90;;;18.50;99.90;;;;;;5127616;27;20014;-35
2023/09/29 04:01:27;;;;;;;2.42;1.83;;;18.50;99.90;;;;;;5061313;28;20064;-35
2023/09/29 04:03:54;;;;;;;3.63;2.00;;;18.50;99.90;;;;;;5128761;27;20117;-35
2023/09/29 04:06:19;;;;;;;3.63;2.10;;;18.50;99.90;;;;;;5062200;27;20053;-34
2023/09/29 04:08:46;;;;;;;3.35;2.05;;;18.60;99.90;;;;;;5118635;27;20492;-35
2023/09/29 04:11:12;;;;;;;3.00;1.90;;;18.60;99.90;;;;;;5069350;27;20065;-36
2023/09/29 04:13:38;;;;;;;4.07;1.95;;;18.60;99.90;;;;;;5107572;27;20113;-35
2023/09/29 04:16:24;;;;;;;2.47;1.88;;;18.60;99.90;;;;;;5082882;27;20115;-35
2023/09/29 04:18:49;;;;;;;2.40;2.20;;;18.60;99.90;;;;;;5106888;27;20369;-36
2023/09/29 04:21:15;;;;;;;3.03;2.00;;;18.60;99.90;;;;;;5083389;27;20024;-37
2023/09/29 04:23:42;;;;;;;2.53;1.80;;;18.60;99.90;;;;;;5124892;27;20595;-34
2023/09/29 04:26:22;;;;;;;2.55;1.85;;;18.60;99.90;;;;;;5133464;27;20022;-34
2023/09/29 04:28:50;;;;;;;2.50;1.77;;;18.60;99.90;;;;;;5139445;27;20020;-35
2023/09/29 04:31:16;;;;;;;3.58;1.95;;;18.60;99.90;;;;;;5132038;27;20079;-36
2023/09/29 04:33:42;;;;;;;3.15;1.98;;;18.60;99.90;;;;;;5150982;27;20046;-37
2023/09/29 04:36:08;;;;;;;2.92;1.70;;;18.60;99.90;;;;;;5117860;27;20022;-35
2023/09/29 04:38:34;;;;;;;2.08;1.80;;;18.60;99.90;;;;;;5160891;27;20024;-36
2023/09/29 04:41:00;;;;;;;2.55;1.90;;;18.60;99.90;;;;;;5108040;27;20022;-35
2023/09/29 04:43:28;;;;;;;2.97;2.05;;;18.60;99.90;;;;;;5160004;27;20492;-36
2023/09/29 04:45:55;;;;;;;2.67;1.70;;;18.60;99.90;;;;;;5109165;27;20382;-36
2023/09/29 04:48:21;;;;;;;6.00;1.98;;;18.60;99.90;;;;;;5166882;27;20018;-36
2023/09/29 04:50:46;;;;;;;2.97;2.20;;;18.60;99.90;;;;;;5127336;27;20035;-36
2023/09/29 04:53:12;;;;;;;3.63;1.70;;;18.60;99.90;;;;;;5061680;28;20029;-36
2023/09/29 04:55:38;;;;;;;2.88;1.73;;;18.60;99.90;;;;;;5128099;27;20033;-36
2023/09/29 04:58:04;;;;;;;2.20;1.75;;;18.60;99.90;;;;;;5061527;28;20029;-36
2023/09/29 05:00:29;;;;;;;2.33;1.92;;;18.60;99.90;;;;;;5119426;27;20377;-35
2023/09/29 05:02:55;;;;;;;1.80;1.67;;;18.60;99.90;;;;;;5071026;27;20384;-36
2023/09/29 05:05:20;;;;;;;3.03;1.80;;;18.70;99.90;;;;;;5103708;27;20369;-36
2023/09/29 05:07:46;;;;;;;2.72;1.90;;;18.70;99.90;;;;;;5084529;27;20371;-36
2023/09/29 05:10:15;;;;;;;2.25;1.55;;;18.70;99.90;;;;;;5090368;27;20556;-39
2023/09/29 05:12:44;;;;;;;2.05;1.73;;;18.70;99.90;;;;;;5098302;27;20021;-36
2023/09/29 05:15:10;;;;;;;2.90;1.70;;;18.70;99.90;;;;;;5084657;27;20033;-36
2023/09/29 05:17:35;;;;;;;3.58;2.10;;;18.70;99.90;;;;;;5111891;27;20021;-36
2023/09/29 05:20:02;;;;;;;2.60;1.90;;;18.70;99.90;;;;;;5070975;27;20032;-36
2023/09/29 05:22:34;;;;;;;3.13;1.73;;;18.80;99.90;;;;;;5063307;27;20028;-35
2023/09/29 05:25:00;;;;;;;2.03;1.70;;;18.70;99.90;;;;;;5072217;27;20033;-36
2023/09/29 05:27:29;;;;;;;3.05;1.83;;;18.80;99.90;;;;;;5123844;27;20025;-35
2023/09/29 05:29:56;;;;;;;2.80;2.03;;;18.80;99.90;;;;;;5071374;27;20101;-34
2023/09/29 05:32:22;;;;;;;2.65;2.17;;;18.80;99.90;;;;;;5119308;27;20086;-36
2023/09/29 05:34:47;;;;;;;3.80;2.30;;;18.80;99.90;;;;;;5065606;27;20555;-36
2023/09/29 05:37:17;;;;;;;5.55;2.13;;;18.80;99.90;;;;;;5130507;27;20029;-35
2023/09/29 05:39:42;;;;;;;2.58;1.85;;;18.80;99.90;;;;;;5064463;28;20024;-36
2023/09/29 05:42:08;;;;;;;2.35;1.92;;;18.90;99.90;;;;;;5130303;27;20469;-35
2023/09/29 05:44:33;;;;;;;2.40;1.90;;;18.90;99.90;;;;;;5064982;28;20013;-35
2023/09/29 05:46:59;;;;;;;2.78;1.90;;;18.90;99.90;;;;;;5118509;27;20383;-39
2023/09/29 05:49:25;;;;;;;2.75;1.90;;;18.90;99.90;;;;;;5076080;27;20032;-36
2023/09/29 05:51:50;;;;;;;2.28;1.45;;;18.90;99.90;;;;;;5104592;27;20042;-37
2023/09/29 05:54:16;;;;;;;2.30;1.85;;;18.90;99.90;;;;;;5089161;27;20032;-35
2023/09/29 05:56:41;;;;;;;1.50;1.40;;;18.90;99.90;;;;;;5091266;27;20035;-36
2023/09/29 05:59:08;;;;;;;2.17;1.35;;;18.90;99.90;;;;;;5103317;27;20029;-35
2023/09/29 06:01:36;;;;;;;2.75;1.65;;;19.00;99.90;;;;;;5076960;27;20046;-36
2023/09/29 06:04:01;;;;;;;2.05;1.60;;;19.00;99.90;;;;;;5115217;27;20078;-38
2023/09/29 06:06:27;;;;;;;1.48;1.38;;;19.00;99.90;;;;;;5072073;27;20481;-37
2023/09/29 06:08:53;;;;;;;4.47;1.50;;;19.10;99.90;;;;;;5104484;27;20030;-36
2023/09/29 06:11:21;;;;;;;1.73;1.42;;;19.10;99.90;;;;;;5163180;27;20038;-35
2023/09/29 06:13:49;;;;;;;2.17;1.40;;;19.20;99.90;;;;;;5119894;27;20467;-38
2023/09/29 06:16:15;;;;;;;3.80;1.77;;;19.20;99.90;;;;;;5062888;28;20035;-37
2023/09/29 06:18:41;;;;;;;1.73;1.55;;;19.30;99.90;;;;;;5130406;27;20016;-35
2023/09/29 06:21:06;;;;;;;2.97;2.38;;;19.30;99.90;;;;;;5063695;28;20032;-34
2023/09/29 06:23:32;;;;;;;2.15;1.67;;;19.30;99.90;;;;;;5130310;27;20091;-35
2023/09/29 06:26:01;;;;;;;4.10;1.67;;;19.40;99.90;;;;;;5063707;28;20112;-35
2023/09/29 06:28:27;;;;;;;1.67;1.50;;;19.40;99.90;;;;;;5121300;27;20030;-36
2023/09/29 06:30:55;;;;;;;1.75;1.60;;;19.50;99.90;;;;;;5071442;27;20048;-34
2023/09/29 06:33:25;;;;;;;3.38;1.88;;;19.50;99.90;;;;;;5110671;27;20141;-34
2023/09/29 06:35:52;;;;;;;2.00;1.80;;;19.60;99.90;;;;;;5080416;27;20073;-36
2023/09/29 06:38:17;;;;;;;3.63;1.92;;;19.60;99.90;;;;;;5091218;27;20035;-38
2023/09/29 06:40:44;;;;;;;1.73;1.60;;;19.60;99.90;;;;;;5140260;27;20026;-35
2023/09/29 06:43:10;;;;;;;1.75;1.30;;;19.60;99.90;;;;;;5145029;27;20099;-36
2023/09/29 06:45:35;;;;;;;1.90;1.52;;;19.60;99.90;;;;;;5127469;27;20202;-35
2023/09/29 06:48:01;;;;;;;1.67;1.40;;;19.60;99.90;;;;;;5159941;27;20064;-39
2023/09/29 06:50:26;;;;;;;1.85;1.60;;;19.60;99.90;;;;;;5112344;27;20041;-35
2023/09/29 06:52:52;;;;;;;2.35;1.40;;;19.70;99.90;;;;;;5163142;27;20021;-34
2023/09/29 06:55:17;;;;;;;3.15;1.45;;;19.70;99.90;;;;;;5109454;27;20396;-35
2023/09/29 06:57:43;;;;;;;1.98;1.30;;;19.70;99.90;;;;;;5168017;27;20019;-36
2023/09/29 07:00:09;;;;;;;1.60;1.38;;;19.70;99.90;;;;;;5104044;27;20022;-36
2023/09/29 07:02:38;;;;;;;1.58;1.30;;;19.70;99.90;;;;;;5168820;27;20034;-36
2023/09/29 07:05:05;;;;;;;2.03;1.50;;;19.70;99.90;;;;;;5136090;27;20513;-36
2023/09/29 07:07:31;;;;;;;1.58;1.40;;;19.80;99.90;;;;;;5064647;27;20119;-36
2023/09/29 07:09:57;;;;;;;2.53;1.70;;;19.80;99.90;;;;;;5071069;27;20077;-35
2023/09/29 07:12:23;;;;;;;2.03;1.83;;;19.80;99.90;;;;;;5166851;27;20671;-35
2023/09/29 07:14:49;;;;;;;3.38;1.70;;;19.90;99.90;;;;;;5118562;27;20028;-36
2023/09/29 07:17:14;;;;;;;2.17;1.80;;;19.90;99.90;;;;;;5152797;27;20023;-37
2023/09/29 07:19:41;;;;;;;1.90;1.55;;;19.90;99.90;;;;;;5132495;27;20085;-34
2023/09/29 07:22:07;;;;;;;1.70;1.60;;;19.90;99.90;;;;;;5124668;27;20487;-37
2023/09/29 07:24:33;;;;;;;2.28;1.85;;;20.00;99.90;;;;;;5086004;27;20018;-35
2023/09/29 07:26:59;;;;;;;3.08;1.70;;;20.00;99.90;;;;;;5104504;27;20032;-35
2023/09/29 07:29:27;;;;;;;2.22;1.60;;;20.10;99.90;;;;;;5072445;27;20029;-36
2023/09/29 07:31:53;;;;;;;2.97;2.08;;;20.10;99.90;;;;;;5116091;27;20049;-37
2023/09/29 07:34:18;;;;;;;1.63;1.52;;;20.20;99.90;;;;;;5069185;27;20027;-36
2023/09/29 07:36:45;;;;;;;2.00;1.50;;;20.20;99.90;;;;;;5122322;27;20486;-35
2023/09/29 07:39:18;;;;;;;2.00;1.50;;;20.20;99.90;;;;;;5066102;27;20029;-37
2023/09/29 07:41:43;;;;;;;3.45;1.63;;;20.30;99.90;;;;;;5119122;27;20048;-34
2023/09/29 07:44:09;;;;;;;2.55;1.60;;;20.30;99.90;;;;;;5063095;28;20745;-36
2023/09/29 07:46:38;;;;;;;1.85;1.38;;;20.30;99.90;;;;;;5128773;27;20079;-34
2023/09/29 07:49:04;;;;;;;1.70;1.45;;;20.30;99.90;;;;;;5062810;28;20021;-35
2023/09/29 07:51:30;;;;;;;2.28;1.60;;;20.30;99.90;;;;;;5129000;27;20034;-35
2023/09/29 07:53:57;;;;;;;2.13;1.50;;;20.30;99.90;;;;;;5062611;28;20025;-36
2023/09/29 07:56:25;;;;;;;2.38;1.52;;;20.40;99.90;;;;;;5085527;27;20020;-35
2023/09/29 07:58:52;;;;;;;2.08;1.60;;;20.40;99.90;;;;;;5163463;27;20054;-35
2023/09/29 08:01:18;;;;;;;1.55;1.30;;;20.40;99.90;;;;;;5120251;27;20484;-35
2023/09/29 08:03:44;;;;;;;3.65;2.25;;;20.50;99.90;;;;;;5149383;27;20014;-36
2023/09/29 08:06:10;;;;;;;2.17;1.80;;;20.50;99.90;;;;;;5134292;27;20032;-35
2023/09/29 08:08:38;;;;;;;3.35;2.20;;;20.60;99.90;;;;;;5135609;27;20018;-35
2023/09/29 08:11:05;;;;;;;2.47;1.95;;;20.70;99.90;;;;;;5145472;27;20470;-36
2023/09/29 08:13:31;;;;;;;2.00;1.80;;;20.70;99.90;;;;;;5125099;27;20029;-36
2023/09/29 08:16:00;;;;;;;2.63;1.75;;;20.80;99.90;;;;;;5157859;27;20018;-35
2023/09/29 08:18:29;;;;;;;2.25;1.60;;;20.80;99.90;;;;;;5062225;27;20028;-34
2023/09/29 08:20:54;;;;;;;2.83;2.00;;;20.90;99.90;;;;;;5070082;27;20021;-38
2023/09/29 08:23:23;;;;;;;1.77;1.60;;;20.90;99.90;;;;;;5096254;27;20020;-35
2023/09/29 08:25:48;;;;;;;1.90;1.65;;;20.90;99.90;;;;;;5069613;27;20111;-36
2023/09/29 08:28:14;;;;;;;3.92;1.58;;;20.90;99.90;;;;;;5116619;27;20528;-36
2023/09/29 08:30:41;;;;;;;2.55;1.48;;;21.00;99.90;;;;;;5061965;28;20040;-36
2023/09/29 08:33:06;;;;;;;1.55;1.38;;;21.10;99.90;;;;;;5082721;27;20491;-34
2023/09/29 08:35:32;;;;;;;2.08;1.70;;;21.10;99.90;;;;;;5166878;27;20018;-40
2023/09/29 08:37:58;;;;;;;1.60;1.50;;;21.20;99.90;;;;;;5100391;27;20129;-36
2023/09/29 08:40:28;;;;;;;3.65;1.80;;;21.30;99.90;;;;;;5167097;27;20026;-35
2023/09/29 08:42:55;;;;;;;1.48;1.38;;;21.40;99.90;;;;;;5110162;27;20021;-35
2023/09/29 08:45:28;;;;;;;1.85;1.40;;;21.40;99.90;;;;;;5158436;27;20022;-35
2023/09/29 08:47:55;;;;;;;1.73;1.35;;;21.50;99.90;;;;;;5119574;27;20024;-35
2023/09/29 08:50:24;;;;;;;2.45;1.70;;;21.50;99.90;;;;;;5150904;27;20137;-36
2023/09/29 08:52:52;;;;;;;2.00;1.80;;;21.60;99.90;;;;;;5129125;27;20059;-34
2023/09/29 08:55:17;;;;;;;2.15;1.85;;;21.60;99.90;;;;;;5140994;27;20042;-41
2023/09/29 08:57:44;;;;;;;1.88;1.70;;;21.70;99.90;;;;;;5140589;27;20025;-34
2023/09/29 09:00:16;;;;;;;2.40;1.75;;;21.70;99.90;;;;;;5126893;27;20018;-35
2023/09/29 09:02:45;;;;;;;2.65;1.73;;;21.80;99.90;;;;;;5149754;27;20053;-36
2023/09/29 09:05:12;;;;;;;2.83;1.50;;;21.80;99.90;;;;;;5120158;27;20022;-36
2023/09/29 09:07:40;;;;;;;1.65;1.48;;;21.90;99.90;;;;;;5159904;27;20014;-37
2023/09/29 09:10:06;;;;;;;2.78;1.70;;;21.90;99.90;;;;;;5097539;27;20496;-36
2023/09/29 09:12:33;;;;;;;1.80;1.52;;;22.00;99.90;;;;;;5159298;27;20015;-35
2023/09/29 09:14:59;;;;;;;2.83;1.60;;;21.90;99.90;;;;;;5107301;27;20520;-33
2023/09/29 09:17:25;;;;;;;2.65;1.95;;;21.90;99.90;;;;;;5164298;27;20042;-36
2023/09/29 09:19:51;;;;;;;2.35;1.50;;;21.90;99.90;;;;;;5103820;27;20062;-36
2023/09/29 09:22:31;;;;;;;3.00;1.90;;;21.90;99.90;;;;;;5152807;27;20018;-36
2023/09/29 09:24:58;;;;;;;2.53;1.65;;;21.90;99.90;;;;;;5126447;27;20035;-36
2023/09/29 09:27:24;;;;;;;3.22;1.73;;;22.00;99.90;;;;;;5061866;28;20123;-36
2023/09/29 09:29:50;;;;;;;1.70;1.50;;;22.10;99.90;;;;;;5128298;27;20109;-35
2023/09/29 09:32:26;;;;;;;3.90;2.40;;;22.20;99.90;;;;;;5060567;28;20946;-36
2023/09/29 09:34:51;;;;;;;2.88;2.33;;;22.20;99.90;;;;;;5127900;27;20105;-37
2023/09/29 09:37:24;;;;;;;3.45;2.00;;;22.30;99.90;;;;;;5041220;28;20136;-35
2023/09/29 09:39:54;;;;;;;2.88;1.95;;;22.30;99.90;;;;;;5083610;27;20028;-36
2023/09/29 09:42:24;;;;;;;3.63;2.42;;;22.30;99.90;;;;;;5160919;27;20039;-35
2023/09/29 09:44:53;;;;;;;2.40;1.80;;;22.30;99.90;;;;;;5117862;27;20017;-36
2023/09/29 09:47:20;;;;;;;3.65;2.00;;;22.40;99.90;;;;;;5151879;27;20033;-36
2023/09/29 09:49:48;;;;;;;4.32;2.13;;;22.40;99.90;;;;;;5127451;27;20028;-36
2023/09/29 09:52:24;;;;;;;2.30;1.73;;;22.40;99.90;;;;;;5141341;27;20041;-36
2023/09/29 09:54:52;;;;;;;2.80;1.85;;;22.40;99.90;;;;;;5132941;27;20020;-35
2023/09/29 09:57:35;;;;;;;2.40;2.00;;;22.30;99.90;;;;;;5137994;27;20022;-36
2023/09/29 10:00:12;;;;;;;3.25;2.00;;;22.40;99.90;;;;;;5134527;27;20067;-36
2023/09/29 10:02:44;;;;;;;3.03;1.83;;;22.40;99.90;;;;;;5148093;27;20079;-36
2023/09/29 10:05:22;;;;;;;3.45;1.60;;;22.50;99.90;;;;;;5135647;27;20123;-37
2023/09/29 10:07:53;;;;;;;3.33;1.88;;;22.60;99.90;;;;;;5146799;27;20531;-36
2023/09/29 10:10:31;;;;;;;2.63;1.50;;;22.60;99.90;;;;;;5137052;27;20036;-35
2023/09/29 10:12:58;;;;;;;3.83;2.25;;;22.60;99.90;;;;;;5146105;27;20026;-35
2023/09/29 10:15:30;;;;;;;2.72;1.98;;;22.60;99.90;;;;;;5139726;27;20017;-36
2023/09/29 10:18:13;;;;;;;2.78;1.90;;;22.50;99.90;;;;;;5138176;27;20022;-36
2023/09/29 10:20:39;;;;;;;4.25;2.10;;;22.60;99.90;;;;;;5144151;27;20020;-37
2023/09/29 10:23:08;;;;;;;2.20;1.63;;;22.60;99.90;;;;;;5090596;27;20100;-36
2023/09/29 10:25:38;;;;;;;1.85;1.67;;;22.50;99.90;;;;;;5086306;27;20022;-36
2023/09/29 10:28:08;;;;;;;2.80;1.73;;;22.50;99.90;;;;;;5104714;27;20480;-36
2023/09/29 10:30:39;;;;;;;2.33;1.50;;;22.50;99.90;;;;;;5078151;27;20029;-36
2023/09/29 10:33:11;;;;;;;2.80;2.10;;;22.40;99.90;;;;;;5110872;27;20503;-35
2023/09/29 10:35:47;;;;;;;2.47;1.60;;;22.40;99.90;;;;;;5072607;27;20024;-36
2023/09/29 10:38:29;;;;;;;2.33;1.63;;;22.40;99.90;;;;;;5113465;27;20024;-36
2023/09/29 10:40:58;;;;;;;3.08;1.40;;;22.40;99.90;;;;;;5078176;27;20029;-35
2023/09/29 10:43:36;;;;;;;2.38;1.50;;;22.50;99.90;;;;;;5113012;27;20059;-36
2023/09/29 10:46:08;;;;;;;3.63;1.65;;;22.50;99.90;;;;;;5074468;27;20027;-36
2023/09/29 10:48:43;;;;;;;2.55;1.58;;;22.50;99.90;;;;;;5113578;27;20131;-36
2023/09/29 10:51:08;;;;;;;1.98;1.50;;;22.50;99.90;;;;;;5072476;27;20146;-35
2023/09/29 10:53:37;;;;;;;1.98;1.45;;;22.50;99.90;;;;;;5119977;27;20029;-35
2023/09/29 10:56:03;;;;;;;4.75;1.60;;;22.50;99.90;;;;;;5069917;27;20025;-36
2023/09/29 10:58:39;;;;;;;2.38;1.40;;;22.40;99.90;;;;;;5122579;27;20396;-35
2023/09/29 11:01:05;;;;;;;2.97;1.65;;;22.40;99.90;;;;;;5070360;27;20254;-37
2023/09/29 11:03:30;;;;;;;2.38;1.55;;;22.30;99.90;;;;;;5122705;27;20024;-37
2023/09/29 11:05:58;;;;;;;3.45;1.60;;;22.20;99.90;;;;;;5063215;28;20048;-36
2023/09/29 11:08:34;;;;;;;2.80;1.88;;;22.20;99.90;;;;;;5128370;27;20054;-35
2023/09/29 11:11:05;;;;;;;2.97;1.90;;;22.10;99.90;;;;;;5062012;28;20037;-38
2023/09/29 11:13:31;;;;;;;2.55;1.90;;;22.00;99.90;;;;;;5130358;27;20024;-35
2023/09/29 11:15:59;;;;;;;2.67;1.80;;;22.00;99.90;;;;;;5063249;28;20176;-36
2023/09/29 11:18:29;;;;;;;2.67;1.80;;;22.00;99.90;;;;;;5128146;27;20496;-35
2023/09/29 11:20:54;;;;;;;3.13;1.98;;;22.10;99.90;;;;;;5064295;28;20059;-36
2023/09/29 11:23:20;;;;;;;2.28;1.83;;;22.10;99.90;;;;;;5121600;27;20105;-35
2023/09/29 11:25:54;;;;;;;1.70;1.58;;;22.10;99.90;;;;;;5068106;27;20804;-35
2023/09/29 11:28:21;;;;;;;2.65;1.85;;;22.10;99.90;;;;;;5084448;27;20032;-36
2023/09/29 11:30:47;;;;;;;2.05;1.80;;;22.00;99.90;;;;;;5155138;27;20034;-36
2023/09/29 11:33:14;;;;;;;4.30;1.98;;;22.00;99.90;;;;;;5127809;27;20052;-34
2023/09/29 11:35:45;;;;;;;3.70;1.73;;;22.00;99.90;;;;;;5143580;27;20746;-36
2023/09/29 11:38:19;;;;;;;1.98;1.60;;;21.90;99.90;;;;;;5137245;27;20032;-40
2023/09/29 11:40:49;;;;;;;2.65;1.77;;;21.90;99.90;;;;;;5139903;27;20057;-35
2023/09/29 11:43:15;;;;;;;2.75;1.60;;;21.90;99.90;;;;;;5141624;27;20037;-38
2023/09/29 11:45:41;;;;;;;2.28;1.80;;;21.90;99.90;;;;;;5127436;27;20030;-36
2023/09/29 11:48:08;;;;;;;1.88;1.63;;;21.90;99.90;;;;;;5152852;27;20050;-36
2023/09/29 11:50:35;;;;;;;2.25;1.70;;;22.00;99.90;;;;;;5114649;27;20034;-35
2023/09/29 11:53:06;;;;;;;2.40;1.75;;;22.00;99.90;;;;;;5158784;27;20099;-38
2023/09/29 11:55:38;;;;;;;2.28;2.08;;;22.10;99.90;;;;;;5107940;27;20099;-37
2023/09/29 11:58:04;;;;;;;2.45;1.80;;;22.20;99.90;;;;;;5159650;27;20030;-35
2023/09/29 12:00:30;;;;;;;2.13;1.92;;;22.20;99.90;;;;;;5109727;27;20045;-36
2023/09/29 12:02:56;;;;;;;2.30;2.10;;;22.20;99.90;;;;;;5168023;27;20389;-36
2023/09/29 12:05:22;;;;;;;2.17;1.98;;;22.20;99.90;;;;;;5122239;27;20075;-36
2023/09/29 12:07:48;;;;;;;2.65;1.88;;;22.20;99.90;;;;;;5062416;28;20867;-35
2023/09/29 12:10:13;;;;;;;1.73;1.63;;;22.10;99.90;;;;;;5128437;27;20057;-36
2023/09/29 12:12:39;;;;;;;2.63;1.67;;;21.90;99.90;;;;;;5062849;28;20391;-36
2023/09/29 12:15:06;;;;;;;2.10;1.75;;;21.90;99.90;;;;;;5121957;27;20022;-35
2023/09/29 12:17:32;;;;;;;2.22;1.63;;;21.90;99.90;;;;;;5067303;27;20028;-36
2023/09/29 12:19:58;;;;;;;1.75;1.60;;;21.90;99.90;;;;;;5109077;27;20018;-35
2023/09/29 12:22:24;;;;;;;2.53;1.80;;;21.80;99.90;;;;;;5087582;27;20024;-36
2023/09/29 12:24:50;;;;;;;1.73;1.63;;;21.80;99.90;;;;;;5133209;27;20032;-35
2023/09/29 12:27:15;;;;;;;2.97;2.10;;;21.80;99.90;;;;;;5135269;27;20038;-36
2023/09/29 12:29:41;;;;;;;2.28;1.73;;;21.80;99.90;;;;;;5147623;27;20365;-35
2023/09/29 12:32:06;;;;;;;2.53;1.90;;;21.70;99.90;;;;;;5121857;27;20118;-36
2023/09/29 12:34:32;;;;;;;1.90;1.35;;;21.70;99.90;;;;;;5160172;27;20053;-34
2023/09/29 12:37:02;;;;;;;1.67;1.25;;;21.60;99.90;;;;;;5108022;27;20014;-35
2023/09/29 12:39:27;;;;;;;2.00;1.40;;;21.60;99.90;;;;;;5160567;27;20591;-35
2023/09/29 12:41:53;;;;;;;1.25;1.15;;;21.50;99.90;;;;;;5108609;27;20018;-36
2023/09/29 12:44:22;;;;;;;1.20;1.00;;;21.50;99.90;;;;;;5165275;27;20446;-36
2023/09/29 12:46:49;;;;;;;2.60;1.10;;;21.50;99.90;;;;;;5106404;27;20010;-36
2023/09/29 12:49:15;;;;;;;3.22;1.08;;;21.50;99.90;;;;;;5166817;27;20551;-36